Time,TemperatureF,DewpointF,PressureIn,WindDirection,WindDirectionDegrees,WindSpeedMPH,WindSpeedGustMPH,Humidity,HourlyPrecipIn,Conditions,Clouds,dailyrainin,SolarRadiationWatts/m^2,SoftwareType,DateUTC
2013-01-05 00:28:00,34.5,22.8,29.94,SW,228,2.0,2.0,62,0.00,,,0.00,0,Wunderground v.1.15,2013-01-05 05:28:00,
2013-01-05 00:58:00,34.7,23.0,29.95,SW,236,1.0,1.0,62,0.00,,,0.00,0,Wunderground v.1.15,2013-01-05 05:58:00,
2013-01-05 01:28:00,34.7,22.6,29.95,WSW,237,2.0,2.0,61,0.00,,,0.00,0,Wunderground v.1.15,2013-01-05 06:28:00,
2013-01-05 01:59:00,34.8,22.7,29.97,West,270,3.0,3.0,61,0.00,,,0.00,0,Wunderground v.1.15,2013-01-05 06:59:00,
2013-01-05 02:29:00,34.5,22.4,29.99,SW,215,3.0,3.0,61,0.00,,,0.00,0,Wunderground v.1.15,2013-01-05 07:29:00,
2013-01-05 02:59:00,34.4,22.3,30.00,NW,315,2.0,2.0,61,0.00,,,0.00,0,Wunderground v.1.15,2013-01-05 07:59:00,
2013-01-05 03:28:00,34.1,22.8,30.02,WNW,289,1.0,1.0,63,0.00,,,0.00,0,Wunderground v.1.15,2013-01-05 08:28:00,
2013-01-05 03:58:00,32.7,21.9,30.03,West,274,2.0,2.0,64,0.00,,,0.00,0,Wunderground v.1.15,2013-01-05 08:58:00,
2013-01-05 04:28:00,32.2,22.5,30.04,WSW,250,3.0,3.0,67,0.00,,,0.00,0,Wunderground v.1.15,2013-01-05 09:28:00,
2013-01-05 04:59:00,32.6,22.8,30.06,West,273,1.0,1.0,67,0.00,,,0.00,0,Wunderground v.1.15,2013-01-05 09:59:00,
2013-01-05 05:28:00,32.9,23.1,30.07,NW,304,2.0,2.0,67,0.00,,,0.00,0,Wunderground v.1.15,2013-01-05 10:28:00,
2013-01-05 05:58:00,32.5,23.1,30.08,NW,312,6.0,6.0,68,0.00,,,0.00,0,Wunderground v.1.15,2013-01-05 10:58:00,
2013-01-05 06:28:00,32.1,23.1,30.08,NW,313,5.0,5.0,69,0.00,,,0.00,0,Wunderground v.1.15,2013-01-05 11:28:00,
2013-01-05 06:58:00,31.6,23.3,30.09,SSE,163,8.0,8.0,71,0.00,,,0.00,0,Wunderground v.1.15,2013-01-05 11:58:00,
2013-01-05 07:28:00,31.2,22.5,30.13,SW,234,3.0,3.0,70,0.00,,,0.00,0,Wunderground v.1.15,2013-01-05 12:28:00,
2013-01-05 07:58:00,32.2,23.8,30.13,WNW,291,2.0,2.0,71,0.00,,,0.00,0,Wunderground v.1.15,2013-01-05 12:58:00,
2013-01-05 08:28:00,31.5,22.8,30.12,North,353,1.0,1.0,70,0.00,,,0.00,0,Wunderground v.1.15,2013-01-05 13:28:00,
2013-01-05 08:58:00,34.2,26.1,30.14,North,352,0.0,0.0,72,0.00,,,0.00,0,Wunderground v.1.15,2013-01-05 13:58:00,
2013-01-05 09:28:00,36.8,25.8,30.16,NNW,336,2.0,2.0,64,0.00,,,0.00,0,Wunderground v.1.15,2013-01-05 14:28:00,
2013-01-05 09:58:00,38.4,25.7,30.13,NNW,332,1.0,1.0,60,0.00,,,0.00,0,Wunderground v.1.15,2013-01-05 14:58:00,
2013-01-05 10:28:00,35.8,24.8,30.14,NNE,30,1.0,1.0,64,0.00,,,0.00,0,Wunderground v.1.15,2013-01-05 15:28:00,
2013-01-05 10:58:00,38.7,27.2,30.17,NNE,30,1.0,1.0,63,0.00,,,0.00,0,Wunderground v.1.15,2013-01-05 15:58:00,
2013-01-05 11:28:00,42.1,28.4,30.15,NNE,30,2.0,2.0,58,0.00,,,0.00,0,Wunderground v.1.15,2013-01-05 16:28:00,
2013-01-05 11:59:00,43.3,26.8,30.14,NNE,30,1.0,1.0,52,0.00,,,0.00,0,Wunderground v.1.15,2013-01-05 16:59:00,
2013-01-05 12:29:00,41.8,26.8,30.13,NNE,30,3.0,3.0,55,0.00,,,0.00,0,Wunderground v.1.15,2013-01-05 17:29:00,
2013-01-05 12:59:00,41.9,26.4,30.10,NNE,28,6.0,6.0,54,0.00,,,0.00,0,Wunderground v.1.15,2013-01-05 17:59:00,
2013-01-05 13:29:00,42.8,26.8,30.09,NNE,24,2.0,2.0,53,0.00,,,0.00,0,Wunderground v.1.15,2013-01-05 18:29:00,
2013-01-05 13:59:00,40.3,25.0,30.07,NNE,24,4.0,4.0,54,0.00,,,0.00,0,Wunderground v.1.15,2013-01-05 18:59:00,
2013-01-05 14:28:00,39.3,24.9,30.08,NNE,24,1.0,1.0,56,0.00,,,0.00,0,Wunderground v.1.15,2013-01-05 19:28:00,
2013-01-05 14:58:00,39.2,25.6,30.08,NNE,24,1.0,1.0,58,0.00,,,0.00,0,Wunderground v.1.15,2013-01-05 19:58:00,
2013-01-05 15:28:00,39.2,26.1,30.06,NNE,24,0.0,0.0,59,0.00,,,0.00,0,Wunderground v.1.15,2013-01-05 20:28:00,
2013-01-05 15:58:00,40.0,26.8,30.07,NNE,24,3.0,3.0,59,0.00,,,0.00,0,Wunderground v.1.15,2013-01-05 20:58:00,
2013-01-05 16:28:00,39.8,26.6,30.07,NNE,24,1.0,1.0,59,0.00,,,0.00,0,Wunderground v.1.15,2013-01-05 21:28:00,
2013-01-05 16:58:00,38.1,26.6,30.06,NNE,24,0.0,0.0,63,0.00,,,0.00,0,Wunderground v.1.15,2013-01-05 21:58:00,
2013-01-05 17:28:00,35.6,26.1,30.05,NNE,24,1.0,1.0,68,0.00,,,0.00,0,Wunderground v.1.15,2013-01-05 22:28:00,
2013-01-05 17:58:00,33.6,25.5,30.04,NNE,23,1.0,1.0,72,0.00,,,0.00,0,Wunderground v.1.15,2013-01-05 22:58:00,
2013-01-05 18:28:00,32.7,25.0,30.05,NNE,24,1.0,1.0,73,0.00,,,0.00,0,Wunderground v.1.15,2013-01-05 23:28:00,
2013-01-05 18:58:00,33.1,25.7,30.03,NNE,24,1.0,1.0,74,0.00,,,0.00,0,Wunderground v.1.15,2013-01-05 23:58:00,
2013-01-05 19:28:00,33.8,26.7,30.04,NNE,24,0.0,0.0,75,0.00,,,0.00,0,Wunderground v.1.15,2013-01-06 00:28:00,
2013-01-05 19:58:00,32.4,25.0,30.03,NNE,24,4.0,4.0,74,0.00,,,0.00,0,Wunderground v.1.15,2013-01-06 00:58:00,
2013-01-05 20:28:00,30.9,25.2,30.01,NNE,24,2.0,2.0,79,0.00,,,0.00,0,Wunderground v.1.15,2013-01-06 01:28:00,
2013-01-05 20:58:00,31.6,25.8,30.01,NNE,24,0.0,0.0,79,0.00,,,0.00,0,Wunderground v.1.15,2013-01-06 01:58:00,
2013-01-05 21:28:00,32.5,27.3,30.01,NNE,24,0.0,0.0,81,0.00,,,0.00,0,Wunderground v.1.15,2013-01-06 02:28:00,
2013-01-05 21:59:00,31.9,26.4,30.00,NNE,24,3.0,3.0,80,0.00,,,0.00,0,Wunderground v.1.15,2013-01-06 02:59:00,
2013-01-05 22:29:00,31.4,26.2,30.00,NNE,24,0.0,0.0,81,0.00,,,0.00,0,Wunderground v.1.15,2013-01-06 03:29:00,
2013-01-05 22:59:00,31.6,27.0,29.98,NNE,24,0.0,0.0,83,0.00,,,0.00,0,Wunderground v.1.15,2013-01-06 03:59:00,
2013-01-05 23:29:00,31.5,27.8,29.97,NNE,24,0.0,0.0,86,0.00,,,0.00,0,Wunderground v.1.15,2013-01-06 04:29:00,
2013-01-05 23:59:00,31.3,27.6,29.97,NNE,24,0.0,0.0,86,0.00,,,0.00,0,Wunderground v.1.15,2013-01-06 04:59:00,